SBBE/BEL METAR and TAF weather

Enter ICAO airport designator
Station Type Date Time Source
SBBE METAR 2024/02/26 17:00 UTC NOAA

SBBE 261700Z 35003KT 9999 FEW020 FEW025TCU SCT100 28/25 Q1011 RERA


Station Type Date Time Source
SBBE Decoded METAR 2024/02/26 17:00 UTC NOAA

Belem Aeroporto , Brazil (SBBE) 01-23S 048-29W 16M
Feb 26, 2024 - 12:00 PM EST / 2024.02.26 1700 UTC
Wind: from the N (350 degrees) at 3 MPH (3 KT):0
Visibility: greater than 7 mile(s):0
Sky conditions: partly cloudy
Weather: Towering cumulus clouds observed
Temperature: 82 F (28 C)
Dew Point: 77 F (25 C)
Relative Humidity: 83%
Pressure (altimeter): 29.85 in. Hg (1011 hPa)
ob: SBBE 261700Z 35003KT 9999 FEW020 FEW025TCU SCT100 28/25 Q1011 RERA
cycle: 17

Station Type Date Time Source
SBBE TAF 2024/02/26 18:03 UTC NOAA